createdAt,value
2018-02-07T00:00:11.403Z,101066.94
2018-02-07T00:02:37.287Z,101069.70
2018-02-07T00:05:03.111Z,101070.27
2018-02-07T00:07:28.918Z,101072.92
2018-02-07T00:09:54.721Z,101074.19
2018-02-07T00:12:20.570Z,101068.94
2018-02-07T00:14:46.529Z,101063.44
2018-02-07T00:17:12.340Z,101067.73
2018-02-07T00:19:38.288Z,101069.36
2018-02-07T00:22:04.106Z,101074.72
2018-02-07T00:24:29.910Z,101071.20
2018-02-07T00:26:55.842Z,101073.09
2018-02-07T00:29:21.650Z,101074.85
2018-02-07T00:31:47.609Z,101072.59
2018-02-07T00:34:13.435Z,101076.19
2018-02-07T00:36:39.252Z,101071.75
2018-02-07T00:39:05.241Z,101068.86
2018-02-07T00:41:31.062Z,101059.41
2018-02-07T00:43:56.870Z,101051.58
2018-02-07T00:46:22.715Z,101044.76
2018-02-07T00:48:48.556Z,101041.61
2018-02-07T00:51:14.545Z,101044.00
2018-02-07T00:53:40.386Z,101034.55
2018-02-07T00:56:06.259Z,101044.00
2018-02-07T00:58:32.113Z,101044.20
2018-02-07T01:00:57.923Z,101045.92
2018-02-07T01:03:23.735Z,101053.07
2018-02-07T01:05:49.552Z,101050.49
2018-02-07T01:08:15.358Z,101053.64
2018-02-07T01:10:41.178Z,101061.40
2018-02-07T01:13:06.992Z,101065.19
2018-02-07T01:15:32.998Z,101063.67
2018-02-07T01:17:58.801Z,101066.22
2018-02-07T01:20:24.619Z,101069.30
2018-02-07T01:22:50.457Z,101061.91
2018-02-07T01:25:16.270Z,101051.57
2018-02-07T01:27:42.142Z,101055.75
2018-02-07T01:30:07.947Z,101059.30
2018-02-07T01:32:33.797Z,101056.28
2018-02-07T01:34:59.621Z,101054.30
2018-02-07T01:37:25.466Z,101043.73
2018-02-07T01:39:51.450Z,101043.84
2018-02-07T01:42:17.266Z,101033.97
2018-02-07T01:44:43.078Z,101035.66
2018-02-07T01:47:08.922Z,101044.52
2018-02-07T01:49:34.730Z,101040.31
2018-02-07T01:52:00.542Z,101034.69
2018-02-07T01:54:26.359Z,101035.89
2018-02-07T01:56:52.164Z,101034.05
2018-02-07T01:59:17.974Z,101037.42
2018-02-07T02:01:43.778Z,101036.74
2018-02-07T02:04:09.594Z,101025.45
2018-02-07T02:06:35.433Z,101030.24
2018-02-07T02:09:01.302Z,101022.09
2018-02-07T02:11:27.113Z,101008.36
2018-02-07T02:13:52.970Z,101022.52
2018-02-07T02:16:18.815Z,101020.73
2018-02-07T02:18:44.635Z,101020.94
2018-02-07T02:21:17.342Z,101024.86
2018-02-07T02:23:43.153Z,101016.23
2018-02-07T02:26:08.962Z,101005.34
2018-02-07T02:28:34.806Z,100995.06
2018-02-07T02:31:00.613Z,101003.27
2018-02-07T02:33:26.431Z,101013.13
2018-02-07T02:35:58.424Z,101025.33
2018-02-07T02:38:24.233Z,101028.51
2018-02-07T02:40:50.043Z,101024.30
2018-02-07T02:43:15.870Z,101027.77
2018-02-07T02:45:41.841Z,101033.32
2018-02-07T02:48:07.705Z,101034.06
2018-02-07T02:50:33.641Z,101035.69
2018-02-07T02:52:59.472Z,101037.55
2018-02-07T02:55:25.399Z,101042.84
2018-02-07T02:57:51.210Z,101045.17
2018-02-07T03:00:17.926Z,101058.98
2018-02-07T03:02:43.761Z,101051.23
2018-02-07T03:05:09.573Z,101046.19
2018-02-07T03:07:35.469Z,101052.84
2018-02-07T03:10:02.119Z,101051.44
2018-02-07T03:12:27.925Z,101053.13
2018-02-07T03:14:53.730Z,101051.99
2018-02-07T03:17:20.398Z,101047.70
2018-02-07T03:19:46.223Z,101044.89
2018-02-07T03:22:12.033Z,101056.70
2018-02-07T03:24:37.842Z,101062.25
2018-02-07T03:27:03.658Z,101062.09
2018-02-07T03:29:29.465Z,101063.13
2018-02-07T03:31:55.329Z,101060.22
2018-02-07T03:34:21.137Z,101047.26
2018-02-07T03:36:46.946Z,101039.78
2018-02-07T03:39:12.797Z,101043.60
2018-02-07T03:41:38.601Z,101049.67
2018-02-07T03:44:05.245Z,101038.30
2018-02-07T03:46:31.053Z,101039.97
2018-02-07T03:48:56.990Z,101042.99
2018-02-07T03:51:22.798Z,101036.66
2018-02-07T03:53:48.601Z,101035.16
2018-02-07T03:56:14.442Z,101033.00
2018-02-07T03:58:40.381Z,101030.87
2018-02-07T04:01:06.246Z,101026.14
2018-02-07T04:03:32.034Z,101029.05
2018-02-07T04:05:57.838Z,101035.42
2018-02-07T04:08:24.437Z,101023.52
2018-02-07T04:10:50.242Z,101023.59
2018-02-07T04:13:16.058Z,101020.98
2018-02-07T04:15:41.914Z,101027.27
2018-02-07T04:18:07.757Z,101027.12
2018-02-07T04:20:34.373Z,101025.80
2018-02-07T04:23:01.122Z,101021.09
2018-02-07T04:25:26.933Z,101020.55
2018-02-07T04:27:52.734Z,101010.31
2018-02-07T04:30:18.538Z,100998.84
2018-02-07T04:32:44.349Z,101001.42
2018-02-07T04:35:10.170Z,101007.97
2018-02-07T04:37:36.022Z,101010.21
2018-02-07T04:40:01.824Z,101004.23
2018-02-07T04:42:27.629Z,101005.39
2018-02-07T04:44:53.488Z,101000.11
2018-02-07T04:47:20.313Z,101013.20
2018-02-07T04:49:46.282Z,101011.39
2018-02-07T04:52:12.091Z,101010.70
2018-02-07T04:54:38.025Z,101007.42
2018-02-07T04:57:03.838Z,101014.86
2018-02-07T04:59:29.765Z,101024.51
2018-02-07T05:01:55.573Z,101023.41
2018-02-07T05:04:21.378Z,101027.06
2018-02-07T05:06:47.213Z,101030.27
2018-02-07T05:09:13.138Z,101041.05
2018-02-07T05:11:38.945Z,101035.61
2018-02-07T05:14:04.750Z,101041.60
2018-02-07T05:16:30.558Z,101043.59
2018-02-07T05:18:56.374Z,101040.27
2018-02-07T05:21:22.174Z,101036.87
2018-02-07T05:23:47.987Z,101040.21
2018-02-07T05:26:13.790Z,101043.58
2018-02-07T05:28:39.629Z,101039.27
2018-02-07T05:31:06.348Z,101035.92
2018-02-07T05:33:33.155Z,101034.50
2018-02-07T05:35:58.962Z,101031.19
2018-02-07T05:38:25.594Z,101023.65
2018-02-07T05:40:51.565Z,101035.38
2018-02-07T05:43:17.402Z,101030.22
2018-02-07T05:45:44.246Z,101031.45
2018-02-07T05:48:11.005Z,101031.45
2018-02-07T05:50:36.841Z,101034.09
2018-02-07T05:53:02.647Z,101041.50
2018-02-07T05:55:28.449Z,101041.39
2018-02-07T05:57:54.253Z,101039.44
2018-02-07T06:00:20.074Z,101040.56
2018-02-07T06:02:46.016Z,101042.57
2018-02-07T06:05:11.862Z,101036.92
2018-02-07T06:07:37.754Z,101046.25
2018-02-07T06:10:04.546Z,101040.97
2018-02-07T06:12:30.498Z,101049.60
2018-02-07T06:14:56.321Z,101052.59
2018-02-07T06:17:22.131Z,101052.97
2018-02-07T06:19:47.934Z,101050.49
2018-02-07T06:22:13.741Z,101046.81
2018-02-07T06:24:39.706Z,101045.92
2018-02-07T06:27:05.516Z,101048.55
2018-02-07T06:29:31.326Z,101052.31
2018-02-07T06:31:57.181Z,101058.98
2018-02-07T06:34:23.002Z,101057.73
2018-02-07T06:36:49.014Z,101069.06
2018-02-07T06:39:14.821Z,101073.72
2018-02-07T06:41:41.573Z,101075.43
2018-02-07T06:44:08.285Z,101074.30
2018-02-07T06:46:34.094Z,101077.71
2018-02-07T06:48:59.904Z,101075.30
2018-02-07T06:51:25.709Z,101083.31
2018-02-07T06:53:51.510Z,101085.32
2018-02-07T06:56:17.317Z,101091.23
2018-02-07T06:58:43.173Z,101090.45
2018-02-07T07:01:08.995Z,101091.47
2018-02-07T07:03:34.868Z,101091.79
2018-02-07T07:06:01.648Z,101090.52
2018-02-07T07:08:28.547Z,101091.81
2018-02-07T07:10:55.620Z,101088.97
2018-02-07T07:13:21.512Z,101093.43
2018-02-07T07:15:48.165Z,101096.01
2018-02-07T07:18:14.088Z,101098.31
2018-02-07T07:20:40.756Z,101090.21
2018-02-07T07:23:06.565Z,101086.69
2018-02-07T07:25:33.395Z,101082.42
2018-02-07T07:28:00.245Z,101085.95
2018-02-07T07:30:27.065Z,101086.38
2018-02-07T07:32:52.878Z,101093.31
2018-02-07T07:35:19.641Z,101098.61
2018-02-07T07:37:46.457Z,101093.13
2018-02-07T07:40:13.108Z,101104.37
2018-02-07T07:42:38.921Z,101098.70
2018-02-07T07:45:04.765Z,101095.33
2018-02-07T07:47:30.574Z,101095.33
2018-02-07T07:49:56.397Z,101091.86
2018-02-07T07:52:22.209Z,101088.30
2018-02-07T07:54:48.071Z,101085.42
2018-02-07T07:57:13.893Z,101092.50
2018-02-07T07:59:39.886Z,101094.45
2018-02-07T08:02:05.735Z,101099.73
2018-02-07T08:04:31.545Z,101095.19
2018-02-07T08:06:57.359Z,101097.28
2018-02-07T08:09:23.170Z,101100.63
2018-02-07T08:11:49.026Z,101105.52
2018-02-07T08:14:15.822Z,101104.54
2018-02-07T08:16:42.760Z,101113.00
2018-02-07T08:19:08.603Z,101104.95
2018-02-07T08:21:34.402Z,101104.39
2018-02-07T08:24:00.212Z,101097.91
2018-02-07T08:26:26.866Z,101103.75
2018-02-07T08:28:53.598Z,101112.06
2018-02-07T08:31:19.401Z,101122.44
2018-02-07T08:33:45.213Z,101115.30
2018-02-07T08:36:11.028Z,101114.13
2018-02-07T08:38:36.834Z,101119.75
2018-02-07T08:41:02.647Z,101109.23
2018-02-07T08:43:28.449Z,101113.89
2018-02-07T08:45:55.041Z,101119.94
2018-02-07T08:48:20.846Z,101118.46
2018-02-07T08:50:46.778Z,101118.12
2018-02-07T08:53:13.355Z,101118.56
2018-02-07T08:55:40.306Z,101118.79
2018-02-07T08:58:06.813Z,101120.30
2018-02-07T09:00:32.678Z,101122.13
2018-02-07T09:02:58.477Z,101127.94
2018-02-07T09:05:24.286Z,101133.09
2018-02-07T09:07:50.102Z,101138.34
2018-02-07T09:10:16.738Z,101137.14
2018-02-07T09:12:42.585Z,101139.09
2018-02-07T09:15:08.394Z,101137.38
2018-02-07T09:17:34.232Z,101135.88
2018-02-07T09:20:00.093Z,101131.72
2018-02-07T09:22:25.955Z,101130.45
2018-02-07T09:24:51.758Z,101132.84
2018-02-07T09:27:17.566Z,101137.73
2018-02-07T09:29:43.388Z,101139.42
2018-02-07T09:32:10.066Z,101141.87
2018-02-07T09:34:35.869Z,101137.02
2018-02-07T09:37:01.678Z,101132.93
2018-02-07T09:39:28.275Z,101131.52
2018-02-07T09:41:54.161Z,101132.31
2018-02-07T09:44:19.994Z,101131.61
2018-02-07T09:46:45.809Z,101129.16
2018-02-07T09:49:11.619Z,101134.18
2018-02-07T09:51:37.430Z,101136.34
2018-02-07T09:54:03.243Z,101142.08
2018-02-07T09:56:29.057Z,101142.13
2018-02-07T09:58:54.868Z,101146.78
2018-02-07T10:01:21.694Z,101141.41
2018-02-07T10:03:47.498Z,101149.55
2018-02-07T10:06:13.309Z,101150.68
2018-02-07T10:08:40.122Z,101154.20
2018-02-07T10:11:05.934Z,101149.84
2018-02-07T10:13:31.741Z,101155.65
2018-02-07T10:15:57.546Z,101163.09
2018-02-07T10:18:23.353Z,101159.87
2018-02-07T10:20:49.198Z,101158.77
2018-02-07T10:23:15.817Z,101155.98
2018-02-07T10:25:41.676Z,101164.07
2018-02-07T10:28:08.503Z,101164.31
2018-02-07T10:30:34.349Z,101173.47
2018-02-07T10:33:00.154Z,101177.41
2018-02-07T10:35:25.958Z,101186.04
2018-02-07T10:37:51.818Z,101187.60
2018-02-07T10:40:17.627Z,101196.39
2018-02-07T10:42:44.353Z,101190.95
2018-02-07T10:45:11.099Z,101193.72
2018-02-07T10:47:37.861Z,101197.09
2018-02-07T10:50:04.641Z,101188.34
2018-02-07T10:52:30.445Z,101191.13
2018-02-07T10:54:56.251Z,101189.11
2018-02-07T10:57:23.084Z,101191.95
2018-02-07T10:59:48.908Z,101187.05
2018-02-07T11:02:15.546Z,101192.05
2018-02-07T11:04:41.365Z,101185.79
2018-02-07T11:07:08.240Z,101189.05
2018-02-07T11:09:34.245Z,101185.55
2018-02-07T11:12:00.928Z,101189.47
2018-02-07T11:14:27.653Z,101183.73
2018-02-07T11:16:54.001Z,101179.86
2018-02-07T11:19:20.633Z,101176.85
2018-02-07T11:21:46.443Z,101173.63
2018-02-07T11:24:12.247Z,101171.39
2018-02-07T11:26:38.905Z,101163.29
2018-02-07T11:29:04.773Z,101164.23
2018-02-07T11:31:30.578Z,101163.13
2018-02-07T11:33:56.384Z,101160.57
2018-02-07T11:36:22.199Z,101161.05
2018-02-07T11:38:48.989Z,101159.34
2018-02-07T11:41:15.825Z,101157.55
2018-02-07T11:43:41.629Z,101158.19
2018-02-07T11:46:07.437Z,101162.18
2018-02-07T11:48:34.066Z,101159.81
2018-02-07T11:50:59.881Z,101152.19
2018-02-07T11:53:25.678Z,101144.89
2018-02-07T11:55:51.665Z,101147.78
2018-02-07T11:58:17.477Z,101144.92
2018-02-07T12:00:44.214Z,101142.49
2018-02-07T12:03:10.950Z,101143.00
2018-02-07T12:05:36.758Z,101142.55
2018-02-07T12:08:02.574Z,101140.37
2018-02-07T12:10:29.222Z,101133.23
2018-02-07T12:12:55.840Z,101135.29
2018-02-07T12:15:21.649Z,101129.23
2018-02-07T12:17:47.461Z,101124.61
2018-02-07T12:20:13.274Z,101129.13
2018-02-07T12:22:39.078Z,101121.29
2018-02-07T12:25:04.887Z,101126.89
2018-02-07T12:27:30.698Z,101126.50
2018-02-07T12:29:56.516Z,101116.55
2018-02-07T12:32:23.097Z,101121.60
2018-02-07T12:34:48.909Z,101112.79
2018-02-07T12:37:15.729Z,101112.94
2018-02-07T12:39:41.541Z,101111.44
2018-02-07T12:42:07.354Z,101113.28
2018-02-07T12:44:33.178Z,101107.40
2018-02-07T12:46:59.002Z,101112.95
2018-02-07T12:49:24.820Z,101103.78
2018-02-07T12:51:50.635Z,101102.45
2018-02-07T12:54:16.441Z,101107.42
2018-02-07T12:56:42.255Z,101101.37
2018-02-07T12:59:08.061Z,101102.64
2018-02-07T13:01:33.913Z,101102.58
2018-02-07T13:03:59.719Z,101097.02
2018-02-07T13:06:25.621Z,101093.80
2018-02-07T13:08:51.658Z,101091.02
2018-02-07T13:11:17.470Z,101086.44
2018-02-07T13:13:43.287Z,101092.05
2018-02-07T13:16:09.101Z,101085.59
2018-02-07T13:18:35.027Z,101089.39
2018-02-07T13:21:00.833Z,101085.18
2018-02-07T13:23:26.686Z,101079.32
2018-02-07T13:25:52.489Z,101082.38
2018-02-07T13:28:18.299Z,101076.95
2018-02-07T13:30:44.225Z,101075.48
2018-02-07T13:33:10.035Z,101070.11
2018-02-07T13:35:35.846Z,101076.63
2018-02-07T13:38:02.552Z,101069.73
2018-02-07T13:40:29.178Z,101072.66
2018-02-07T13:42:55.942Z,101066.15
2018-02-07T13:45:21.795Z,101067.47
2018-02-07T13:47:47.602Z,101064.10
2018-02-07T13:50:13.435Z,101063.70
2018-02-07T13:52:39.410Z,101060.83
2018-02-07T13:55:05.258Z,101062.31
2018-02-07T13:57:31.665Z,101059.76
2018-02-07T13:59:57.473Z,101065.48
2018-02-07T14:02:23.355Z,101062.81
2018-02-07T14:04:49.161Z,101057.64
2018-02-07T14:07:15.010Z,101063.58
2018-02-07T14:09:40.819Z,101070.52
2018-02-07T14:12:07.430Z,101066.50
2018-02-07T14:14:34.096Z,101063.40
2018-02-07T14:17:00.889Z,101064.72
2018-02-07T14:19:26.765Z,101073.94
2018-02-07T14:21:53.374Z,101069.38
2018-02-07T14:24:19.213Z,101073.01
2018-02-07T14:26:53.124Z,101078.66
2018-02-07T14:29:18.978Z,101080.81
2018-02-07T14:31:45.789Z,101075.65
2018-02-07T14:34:12.582Z,101080.70
2018-02-07T14:36:39.210Z,101081.92
2018-02-07T14:39:06.017Z,101083.36
2018-02-07T14:41:32.854Z,101085.47
2018-02-07T14:43:58.667Z,101083.58
2018-02-07T14:46:25.462Z,101084.64
2018-02-07T14:48:52.225Z,101088.08
2018-02-07T14:51:18.061Z,101083.26
2018-02-07T14:53:44.845Z,101086.64
2018-02-07T14:56:11.677Z,101090.84
2018-02-07T14:58:38.446Z,101086.20
2018-02-07T15:01:04.328Z,101089.29
2018-02-07T15:03:31.097Z,101090.20
2018-02-07T15:05:56.978Z,101088.98
2018-02-07T15:08:22.785Z,101095.80
2018-02-07T15:10:48.589Z,101095.11
2018-02-07T15:13:15.414Z,101090.61
2018-02-07T15:15:42.265Z,101105.80
2018-02-07T15:18:08.113Z,101101.97
2018-02-07T15:20:33.942Z,101098.48
2018-02-07T15:22:59.785Z,101099.77
2018-02-07T15:25:26.615Z,101101.00
2018-02-07T15:27:52.458Z,101105.90
2018-02-07T15:30:18.264Z,101103.16
2018-02-07T15:32:45.041Z,101107.29
2018-02-07T15:35:10.846Z,101103.84
2018-02-07T15:37:37.722Z,101115.73
2018-02-07T15:40:03.529Z,101114.86
2018-02-07T15:42:30.395Z,101118.78
2018-02-07T15:44:56.213Z,101111.08
2018-02-07T15:47:22.990Z,101121.27
2018-02-07T15:49:49.694Z,101119.83
2018-02-07T15:52:16.406Z,101125.38
2018-02-07T15:54:42.250Z,101125.55
2018-02-07T15:57:08.976Z,101124.64
2018-02-07T15:59:35.654Z,101128.55
2018-02-07T16:02:02.413Z,101128.63
2018-02-07T16:04:28.267Z,101130.48
2018-02-07T16:06:54.073Z,101135.67
2018-02-07T16:09:20.794Z,101137.03
2018-02-07T16:11:46.601Z,101145.77
2018-02-07T16:14:12.412Z,101151.81
2018-02-07T16:16:39.063Z,101151.87
2018-02-07T16:19:04.918Z,101158.87
2018-02-07T16:21:31.625Z,101158.87
2018-02-07T16:23:58.279Z,101159.95
2018-02-07T16:26:25.187Z,101163.05
2018-02-07T16:28:50.993Z,101163.81
2018-02-07T16:31:17.794Z,101174.03
2018-02-07T16:33:44.585Z,101172.97
2018-02-07T16:36:10.558Z,101173.58
2018-02-07T16:38:36.365Z,101177.29
2018-02-07T16:41:02.169Z,101177.11
2018-02-07T16:43:27.973Z,101180.37
2018-02-07T16:45:53.786Z,101180.03
2018-02-07T16:48:19.598Z,101182.82
2018-02-07T16:50:45.407Z,101189.53
2018-02-07T16:53:11.268Z,101190.16
2018-02-07T16:55:37.085Z,101195.41
2018-02-07T16:58:02.894Z,101196.59
2018-02-07T17:00:28.721Z,101197.97
2018-02-07T17:02:54.531Z,101201.59
2018-02-07T17:05:20.345Z,101203.43
2018-02-07T17:07:46.168Z,101211.17
2018-02-07T17:10:13.002Z,101215.41
2018-02-07T17:12:38.805Z,101210.11
2018-02-07T17:15:04.625Z,101218.33
2018-02-07T17:17:30.517Z,101213.50
2018-02-07T17:19:56.326Z,101217.44
2018-02-07T17:22:22.129Z,101220.50
2018-02-07T17:24:47.938Z,101218.19
2018-02-07T17:27:13.786Z,101221.14
2018-02-07T17:29:39.599Z,101216.34
2018-02-07T17:32:05.498Z,101221.74
2018-02-07T17:34:32.147Z,101224.64
2018-02-07T17:36:57.957Z,101220.00
2018-02-07T17:39:23.774Z,101225.75
2018-02-07T17:41:49.577Z,101221.94
2018-02-07T17:44:15.386Z,101229.41
2018-02-07T17:46:41.205Z,101223.65
2018-02-07T17:49:07.022Z,101230.34
2018-02-07T17:51:32.874Z,101227.02
2018-02-07T17:53:58.722Z,101234.02
2018-02-07T17:56:24.577Z,101232.67
2018-02-07T17:58:50.458Z,101234.46
2018-02-07T18:01:16.329Z,101239.89
2018-02-07T18:03:42.203Z,101238.78
2018-02-07T18:06:08.875Z,101240.70
2018-02-07T18:08:34.687Z,101245.68
2018-02-07T18:11:00.495Z,101253.95
2018-02-07T18:13:26.342Z,101245.58
2018-02-07T18:15:52.210Z,101233.73
2018-02-07T18:18:18.017Z,101238.40
2018-02-07T18:20:43.873Z,101244.75
2018-02-07T18:23:09.684Z,101238.07
2018-02-07T18:25:35.526Z,101249.31
2018-02-07T18:28:01.330Z,101244.42
2018-02-07T18:30:27.209Z,101241.83
2018-02-07T18:32:53.094Z,101238.62
2018-02-07T18:35:18.958Z,101244.98
2018-02-07T18:37:44.846Z,101246.47
2018-02-07T18:40:10.674Z,101247.55
2018-02-07T18:42:37.326Z,101244.69
2018-02-07T18:45:03.166Z,101247.63
2018-02-07T18:47:29.020Z,101247.52
2018-02-07T18:49:54.839Z,101249.58
2018-02-07T18:52:21.649Z,101246.24
2018-02-07T18:54:48.275Z,101236.85
2018-02-07T18:57:21.149Z,101237.94
2018-02-07T18:59:47.014Z,101239.19
2018-02-07T19:02:12.841Z,101242.82
2018-02-07T19:04:39.599Z,101243.91
2018-02-07T19:07:05.412Z,101248.77
2018-02-07T19:09:31.257Z,101255.42
2018-02-07T19:11:57.093Z,101257.78
2018-02-07T19:14:22.945Z,101259.09
2018-02-07T19:16:49.675Z,101260.59
2018-02-07T19:19:15.574Z,101259.98
2018-02-07T19:21:41.402Z,101261.41
2018-02-07T19:24:07.213Z,101260.94
2018-02-07T19:26:33.034Z,101267.31
2018-02-07T19:28:58.849Z,101260.30
2018-02-07T19:31:25.658Z,101263.09
2018-02-07T19:33:52.388Z,101262.55
2018-02-07T19:36:18.254Z,101264.66
2018-02-07T19:38:44.141Z,101260.37
2018-02-07T19:41:10.060Z,101256.95
2018-02-07T19:43:35.864Z,101258.28
2018-02-07T19:46:01.852Z,101261.71
2018-02-07T19:48:28.365Z,101263.22
2018-02-07T19:50:54.270Z,101263.08
2018-02-07T19:53:20.209Z,101266.97
2018-02-07T19:55:46.205Z,101267.78
2018-02-07T19:58:12.278Z,101261.61
2018-02-07T20:00:38.273Z,101267.45
2018-02-07T20:03:04.097Z,101267.63
2018-02-07T20:05:29.910Z,101274.44
2018-02-07T20:07:58.546Z,101275.10
2018-02-07T20:10:25.010Z,101269.31
2018-02-07T20:12:51.059Z,101277.88
2018-02-07T20:15:17.369Z,101286.86
2018-02-07T20:17:45.520Z,101287.61
2018-02-07T20:22:44.650Z,101293.42
2018-02-07T20:25:15.467Z,101295.51
2018-02-07T20:27:54.168Z,101294.36
2018-02-07T20:30:25.402Z,101297.11
2018-02-07T20:32:52.421Z,101297.81
2018-02-07T20:35:18.630Z,101301.90
2018-02-07T20:37:45.317Z,101296.27
2018-02-07T20:40:11.303Z,101303.72
2018-02-07T20:42:37.117Z,101303.79
2018-02-07T20:45:04.162Z,101295.78
2018-02-07T20:47:32.417Z,101287.19
2018-02-07T20:49:58.574Z,101290.77
2018-02-07T20:52:24.400Z,101290.61
2018-02-07T20:54:50.250Z,101290.52
2018-02-07T20:57:16.351Z,101298.09
2018-02-07T20:59:42.253Z,101296.83
2018-02-07T21:02:08.294Z,101301.52
2018-02-07T21:04:34.173Z,101303.44
2018-02-07T21:06:59.985Z,101307.53
2018-02-07T21:09:25.922Z,101299.65
2018-02-07T21:11:52.579Z,101311.37
2018-02-07T21:14:18.388Z,101304.14
2018-02-07T21:16:44.342Z,101305.84
2018-02-07T21:19:10.165Z,101307.58
2018-02-07T21:21:36.398Z,101315.31
2018-02-07T21:24:02.206Z,101313.18
2018-02-07T21:26:28.418Z,101318.25
2018-02-07T21:28:54.261Z,101317.30
2018-02-07T21:31:20.082Z,101318.16
2018-02-07T21:33:45.888Z,101316.34
2018-02-07T21:36:11.700Z,101319.19
2018-02-07T21:38:37.501Z,101314.50
2018-02-07T21:41:03.321Z,101317.35
2018-02-07T21:43:29.141Z,101312.73
2018-02-07T21:45:54.941Z,101309.81
2018-02-07T21:48:20.790Z,101308.17
2018-02-07T21:50:46.632Z,101305.89
2018-02-07T21:53:13.256Z,101305.14
2018-02-07T21:55:39.189Z,101305.73
2018-02-07T21:58:05.018Z,101302.79
2018-02-07T22:00:30.865Z,101314.88
2018-02-07T22:02:56.674Z,101308.20
2018-02-07T22:05:22.621Z,101313.02
2018-02-07T22:07:48.438Z,101311.56
2018-02-07T22:10:14.287Z,101314.46
2018-02-07T22:12:40.094Z,101317.59
2018-02-07T22:15:06.781Z,101316.84
2018-02-07T22:17:33.390Z,101317.59
2018-02-07T22:20:00.083Z,101325.11
2018-02-07T22:22:25.893Z,101331.94
2018-02-07T22:24:52.478Z,101332.92
2018-02-07T22:27:19.333Z,101339.29
2018-02-07T22:29:46.049Z,101332.78
2018-02-07T22:32:11.905Z,101334.13
2018-02-07T22:34:37.715Z,101335.45
2018-02-07T22:37:03.526Z,101332.25
2018-02-07T22:39:29.333Z,101337.20
2018-02-07T22:41:55.181Z,101337.73
2018-02-07T22:44:20.982Z,101339.82
2018-02-07T22:46:46.922Z,101334.70
2018-02-07T22:49:12.726Z,101336.22
2018-02-07T22:51:39.617Z,101334.16
2018-02-07T22:54:05.421Z,101333.27
2018-02-07T22:56:31.269Z,101332.05
2018-02-07T22:58:57.121Z,101334.66
2018-02-07T23:01:22.970Z,101325.95
2018-02-07T23:03:49.603Z,101325.67
2018-02-07T23:06:15.405Z,101334.51
2018-02-07T23:08:42.193Z,101331.36
2018-02-07T23:11:08.002Z,101325.00
2018-02-07T23:13:33.846Z,101335.97
2018-02-07T23:15:59.654Z,101331.30
2018-02-07T23:18:26.513Z,101328.97
2018-02-07T23:20:53.282Z,101329.40
2018-02-07T23:23:20.076Z,101329.92
2018-02-07T23:25:46.738Z,101330.62
2018-02-07T23:28:13.566Z,101327.78
2018-02-07T23:30:39.378Z,101326.84
2018-02-07T23:33:06.192Z,101332.08
2018-02-07T23:35:32.974Z,101337.46
2018-02-07T23:37:59.801Z,101338.71
2018-02-07T23:40:25.606Z,101335.89
2018-02-07T23:42:51.454Z,101329.40
2018-02-07T23:45:17.261Z,101330.39
2018-02-07T23:47:43.079Z,101330.73
2018-02-07T23:50:09.865Z,101331.68
2018-02-07T23:52:36.529Z,101337.88
2018-02-07T23:55:02.474Z,101339.75
2018-02-07T23:57:28.357Z,101336.52
2018-02-07T23:59:55.049Z,101337.73
